Time;durP1;ratioP1;P1;durP2;ratioP2;P2;SDS_P1;SDS_P2;PMS_P1;PMS_P2;Temp;Humidity;BMP_temperature;BMP_pressure;BME280_temperature;BME280_humidity;BME280_pressure;Samples;Min_cycle;Max_cycle;Signal;HPM_P1;HPM_P2
2022/09/27 00:02:07;;;;;;;8.00;2.33;;;;;;;9.45;100.00;99672.44;5032750;28;20029;-53
2022/09/27 00:04:32;;;;;;;8.45;2.10;;;;;;;9.44;100.00;99661.97;5045840;28;20028;-54
2022/09/27 00:06:58;;;;;;;8.35;2.05;;;;;;;9.44;100.00;99659.31;5045557;28;20104;-55
2022/09/27 00:09:24;;;;;;;5.60;2.13;;;;;;;9.42;100.00;99664.75;5036329;28;20078;-54
2022/09/27 00:11:49;;;;;;;5.65;2.25;;;;;;;9.42;100.00;99669.22;5038267;28;20022;-53
2022/09/27 00:14:15;;;;;;;6.72;2.10;;;;;;;9.41;100.00;99667.56;5033308;28;20048;-55
2022/09/27 00:16:42;;;;;;;6.20;2.00;;;;;;;9.42;100.00;99671.88;5034106;28;20543;-54
2022/09/27 00:19:13;;;;;;;5.38;1.85;;;;;;;9.42;100.00;99677.19;5033512;28;20171;-55
2022/09/27 00:21:39;;;;;;;6.53;2.25;;;;;;;9.40;100.00;99677.31;5029518;28;20024;-54
2022/09/27 00:24:04;;;;;;;5.35;2.20;;;;;;;9.42;100.00;99683.31;5047059;28;20037;-54
2022/09/27 00:26:30;;;;;;;6.53;1.98;;;;;;;9.40;100.00;99682.63;5049557;28;20036;-54
2022/09/27 00:28:56;;;;;;;4.65;1.95;;;;;;;9.40;100.00;99687.91;5044670;28;20030;-53
2022/09/27 00:31:24;;;;;;;5.80;2.00;;;;;;;9.39;100.00;99702.16;5049395;28;20188;-54
2022/09/27 00:33:52;;;;;;;6.18;1.52;;;;;;;9.40;100.00;99709.13;5044442;28;20522;-53
2022/09/27 00:36:19;;;;;;;8.35;2.10;;;;;;;9.40;100.00;99714.41;5049598;28;20571;-54
2022/09/27 00:38:44;;;;;;;5.97;1.70;;;;;;;9.41;100.00;99708.16;5046743;28;20068;-53
2022/09/27 00:41:22;;;;;;;6.35;1.95;;;;;;;9.42;100.00;99703.69;5049246;28;20069;-53
2022/09/27 00:43:50;;;;;;;3.45;1.40;;;;;;;9.42;100.00;99698.38;5043193;28;20089;-53
2022/09/27 00:46:24;;;;;;;5.20;1.55;;;;;;;9.42;100.00;99707.16;5045848;28;20036;-53
2022/09/27 00:49:01;;;;;;;6.68;1.95;;;;;;;9.46;100.00;99705.09;5044384;28;20047;-54
2022/09/27 00:51:26;;;;;;;6.07;2.08;;;;;;;9.33;100.00;99683.31;5075329;23;20144;-81
2022/09/27 00:53:54;;;;;;;6.05;1.70;;;;;;;9.42;100.00;99695.72;5043491;28;20057;-81
2022/09/27 00:56:25;;;;;;;3.60;1.75;;;;;;;9.27;100.00;99671.44;5030786;28;20044;-81
2022/09/27 00:58:56;;;;;;;4.95;1.55;;;;;;;9.29;100.00;99672.13;5030925;28;20119;-81
2022/09/27 01:01:21;;;;;;;6.95;1.67;;;;;;;9.33;100.00;99680.69;5029495;28;20044;-81
2022/09/27 01:04:04;;;;;;;6.82;1.80;;;;;;;9.41;100.00;99689.59;5037169;28;20025;-82
2022/09/27 01:06:30;;;;;;;3.58;1.35;;;;;;;9.40;100.00;99693.22;5041860;28;20028;-81
2022/09/27 01:08:55;;;;;;;3.95;1.40;;;;;;;9.38;100.00;99686.41;5044049;28;20030;-82
2022/09/27 01:11:47;;;;;;;3.22;1.30;;;;;;;9.42;100.00;99687.78;5039167;28;20076;-82
2022/09/27 01:14:35;;;;;;;4.57;1.40;;;;;;;9.39;100.00;99691.56;5018503;28;20045;-82
2022/09/27 01:17:16;;;;;;;3.88;1.17;;;;;;;9.38;100.00;99689.06;5022978;28;20170;-82
2022/09/27 01:20:15;;;;;;;5.32;1.60;;;;;;;9.35;100.00;99694.63;5033414;28;20408;-81
2022/09/27 01:23:01;;;;;;;;;;;;;;;9.42;100.00;99701.03;5037962;28;20045;-81
2022/09/27 01:25:40;;;;;;;4.38;1.50;;;;;;;9.34;100.00;99698.22;5028551;28;19913;-81
2022/09/27 01:28:45;;;;;;;6.07;1.27;;;;;;;9.36;100.00;99697.13;5036615;28;20044;-81
2022/09/27 01:31:22;;;;;;;6.25;1.52;;;;;;;9.26;100.00;99701.59;5034176;28;20037;-82
2022/09/27 01:34:01;;;;;;;2.90;1.30;;;;;;;9.29;100.00;99706.59;5040018;28;20048;-82
2022/09/27 01:36:54;;;;;;;3.72;1.20;;;;;;;9.29;100.00;99717.19;5035757;28;20030;-81
2022/09/27 01:39:28;;;;;;;3.50;1.25;;;;;;;9.25;100.00;99713.97;5035281;28;20047;-81
2022/09/27 01:42:05;;;;;;;5.90;1.73;;;;;;;9.23;100.00;99715.09;5033262;28;20034;-81
2022/09/27 01:44:43;;;;;;;5.65;1.50;;;;;;;9.16;100.00;99713.97;5043136;28;20025;-81
2022/09/27 01:47:21;;;;;;;3.72;1.50;;;;;;;9.11;100.00;99709.09;5038938;28;20067;-81
2022/09/27 01:50:10;;;;;;;4.68;1.42;;;;;;;9.13;100.00;99715.09;5025295;28;20026;-82
2022/09/27 01:52:41;;;;;;;5.78;1.33;;;;;;;9.04;100.00;99707.94;5023921;28;20125;-82
2022/09/27 01:55:20;;;;;;;6.10;1.30;;;;;;;9.03;100.00;99723.00;5022947;28;20025;-80
2022/09/27 01:57:52;;;;;;;5.35;1.20;;;;;;;9.05;100.00;99739.59;5013112;28;20077;-81
2022/09/27 02:00:22;;;;;;;4.25;1.42;;;;;;;9.04;100.00;99729.13;5024888;28;20040;-81
2022/09/27 02:02:56;;;;;;;5.22;1.30;;;;;;;8.92;100.00;99709.84;5022252;28;20032;-81
2022/09/27 02:05:28;;;;;;;4.85;1.33;;;;;;;8.99;100.00;99723.41;5021702;28;20049;-81
2022/09/27 02:08:12;;;;;;;7.80;1.45;;;;;;;8.96;100.00;99716.56;5023614;28;20026;-81
2022/09/27 02:10:42;;;;;;;3.42;1.25;;;;;;;8.95;100.00;99729.94;5025935;28;20068;-81
2022/09/27 02:13:53;;;;;;;4.32;1.42;;;;;;;8.90;100.00;99717.09;5023164;28;20049;-82
2022/09/27 02:16:27;;;;;;;5.32;1.25;;;;;;;8.83;100.00;99715.97;4960648;28;20039;-80
2022/09/27 02:19:28;;;;;;;3.80;1.20;;;;;;;8.87;100.00;99725.31;4963014;28;20039;-82
2022/09/27 02:21:57;;;;;;;5.80;1.23;;;;;;;8.86;100.00;99724.50;5000989;28;20037;-80
2022/09/27 02:24:40;;;;;;;3.72;1.08;;;;;;;8.88;100.00;99727.00;5023937;28;20037;-80
2022/09/27 02:27:13;;;;;;;7.05;1.27;;;;;;;8.87;100.00;99725.31;5022671;28;20080;-81
2022/09/27 02:29:46;;;;;;;5.25;1.45;;;;;;;8.82;100.00;99719.59;5024300;28;20030;-81
2022/09/27 02:32:12;;;;;;;6.10;1.55;;;;;;;8.84;100.00;99722.94;5024191;28;20029;-81
2022/09/27 02:34:39;;;;;;;6.35;1.40;;;;;;;8.75;100.00;99719.28;5017677;28;20426;-82
2022/09/27 02:37:05;;;;;;;5.25;1.42;;;;;;;8.75;100.00;99731.69;5024062;28;20038;-82
2022/09/27 02:39:30;;;;;;;3.75;1.30;;;;;;;8.75;100.00;99737.00;5026888;28;20026;-82
2022/09/27 02:41:57;;;;;;;6.45;1.23;;;;;;;8.75;100.00;99747.56;5022972;28;20026;-81
2022/09/27 02:44:23;;;;;;;7.82;1.50;;;;;;;8.68;100.00;99736.69;5013096;28;20026;-82
2022/09/27 02:47:20;;;;;;;4.03;1.52;;;;;;;8.68;100.00;99734.03;5029704;28;20030;-82
2022/09/27 02:50:08;;;;;;;5.60;1.23;;;;;;;8.64;100.00;99730.81;5028900;28;20037;-81
2022/09/27 02:53:08;;;;;;;4.13;1.17;;;;;;;8.61;100.00;99731.06;5022466;28;20046;-81
2022/09/27 02:55:50;;;;;;;4.78;1.50;;;;;;;8.50;100.00;99726.69;5023611;28;20444;-82
2022/09/27 02:58:28;;;;;;;2.90;1.10;;;;;;;8.54;100.00;99729.91;5030300;28;20033;-82
2022/09/27 03:01:11;;;;;;;7.35;1.70;;;;;;;8.45;100.00;99725.41;5016532;28;20057;-82
2022/09/27 03:04:28;;;;;;;2.75;1.23;;;;;;;8.52;100.00;99737.97;5029707;28;20076;-81
2022/09/27 03:06:56;;;;;;;4.95;1.30;;;;;;;8.44;100.00;99727.25;5003572;28;20031;-81
2022/09/27 03:09:29;;;;;;;7.23;1.70;;;;;;;8.45;100.00;99728.06;5017061;28;20106;-81
2022/09/27 03:11:57;;;;;;;5.43;1.45;;;;;;;8.37;100.00;99723.38;5014926;28;20377;-81
2022/09/27 03:14:22;;;;;;;5.55;1.85;;;;;;;8.37;100.00;99719.91;5024457;28;20132;-81
2022/09/27 03:16:48;;;;;;;7.57;1.50;;;;;;;8.37;100.00;99722.56;5019725;28;20049;-82
2022/09/27 03:19:13;;;;;;;5.63;1.63;;;;;;;8.39;100.00;99731.19;5019117;28;20389;-81
2022/09/27 03:21:38;;;;;;;8.13;1.55;;;;;;;8.32;100.00;99718.47;5026675;28;20053;-81
2022/09/27 03:24:04;;;;;;;6.00;1.70;;;;;;;8.32;100.00;99731.72;5026975;28;20034;-82
2022/09/27 03:26:29;;;;;;;4.22;1.40;;;;;;;8.30;100.00;99743.41;5022948;28;20023;-82
2022/09/27 03:28:55;;;;;;;5.97;1.50;;;;;;;8.29;100.00;99739.06;5025101;28;20029;-82
2022/09/27 03:31:20;;;;;;;6.82;1.70;;;;;;;8.29;100.00;99736.44;5027648;28;20560;-81
2022/09/27 03:33:46;;;;;;;6.70;1.67;;;;;;;8.27;100.00;99735.72;5024129;28;20029;-80
2022/09/27 03:36:11;;;;;;;4.75;1.48;;;;;;;8.27;100.00;99741.03;5019779;28;20072;-81
2022/09/27 03:38:37;;;;;;;6.53;1.40;;;;;;;8.28;100.00;99742.72;5024498;28;20088;-81
2022/09/27 03:41:03;;;;;;;3.58;1.30;;;;;;;8.27;100.00;99744.50;5023793;28;20018;-81
2022/09/27 03:43:34;;;;;;;3.15;1.33;;;;;;;8.23;100.00;99742.25;5025567;28;20054;-81
2022/09/27 03:46:00;;;;;;;9.13;2.00;;;;;;;8.15;100.00;99737.59;5026230;28;20021;-81
2022/09/27 03:48:25;;;;;;;9.10;1.60;;;;;;;8.26;100.00;99750.78;5017131;28;20065;-81
2022/09/27 03:50:51;;;;;;;5.35;1.70;;;;;;;8.15;100.00;99737.59;5026712;28;20034;-81
2022/09/27 03:53:17;;;;;;;7.32;1.73;;;;;;;8.30;100.00;99762.75;5032920;28;20029;-81
2022/09/27 03:55:45;;;;;;;11.52;2.45;;;;;;;8.32;100.00;99778.50;5025796;28;20385;-81
2022/09/27 03:58:10;;;;;;;8.48;1.85;;;;;;;8.32;100.00;99784.63;5028006;28;20025;-81
2022/09/27 04:00:36;;;;;;;8.18;1.70;;;;;;;8.34;100.00;99789.78;5024551;28;20064;-81
2022/09/27 04:03:01;;;;;;;6.57;1.75;;;;;;;8.32;100.00;99784.63;5020227;28;20033;-81
2022/09/27 04:05:28;;;;;;;4.95;1.38;;;;;;;8.30;100.00;99785.75;5020175;28;20022;-81
2022/09/27 04:07:54;;;;;;;8.43;1.52;;;;;;;8.32;100.00;99792.56;5019777;28;20381;-81
2022/09/27 04:10:20;;;;;;;6.32;1.55;;;;;;;8.33;100.00;99794.25;5019224;28;20058;-81
2022/09/27 04:12:45;;;;;;;6.25;1.70;;;;;;;8.28;100.00;99788.50;5022903;28;20043;-81
2022/09/27 04:15:11;;;;;;;5.82;1.20;;;;;;;8.30;100.00;99785.75;5020598;28;20054;-81
2022/09/27 04:17:39;;;;;;;3.80;1.27;;;;;;;8.30;100.00;99788.38;5026412;28;20163;-81
2022/09/27 04:20:05;;;;;;;6.85;1.20;;;;;;;8.24;100.00;99775.66;5022612;28;20022;-81
2022/09/27 04:22:31;;;;;;;3.80;1.33;;;;;;;8.28;100.00;99772.63;5015646;28;20060;-81
2022/09/27 04:24:56;;;;;;;7.63;1.15;;;;;;;8.27;100.00;99765.66;5020744;28;20029;-81
2022/09/27 04:27:21;;;;;;;6.88;1.17;;;;;;;8.27;100.00;99770.94;5016410;28;20034;-80
2022/09/27 04:29:47;;;;;;;4.47;1.33;;;;;;;8.25;100.00;99753.53;5030616;28;20056;-81
2022/09/27 04:32:12;;;;;;;3.15;1.13;;;;;;;8.29;100.00;99762.88;5025158;28;20056;-81
2022/09/27 04:37:22;;;;;;;1.83;1.08;;;;;;;8.29;100.00;99761.09;5015407;28;20048;-81
2022/09/27 04:39:48;;;;;;;1.92;1.00;;;;;;;8.29;100.00;99758.44;5004983;28;20421;-81
2022/09/27 04:42:14;;;;;;;3.53;1.05;;;;;;;8.29;100.00;99747.88;5019198;28;20026;-83
2022/09/27 04:44:39;;;;;;;2.00;0.85;;;;;;;8.28;100.00;99764.69;5020731;28;20049;-81
2022/09/27 04:47:04;;;;;;;4.05;1.25;;;;;;;8.25;100.00;99762.31;5018564;28;20038;-83
2022/09/27 04:49:29;;;;;;;4.53;1.20;;;;;;;8.26;100.00;99764.00;5016935;28;20176;-82
2022/09/27 04:51:55;;;;;;;4.15;1.30;;;;;;;8.23;100.00;99764.25;5021406;28;20048;-81
2022/09/27 04:54:21;;;;;;;5.28;1.13;;;;;;;8.21;100.00;99770.63;5008400;28;20428;-82
2022/09/27 04:56:47;;;;;;;5.38;1.00;;;;;;;8.21;100.00;99770.63;5019686;28;20037;-82
2022/09/27 04:59:16;;;;;;;1.67;0.82;;;;;;;8.20;100.00;99772.44;5019022;28;20030;-82
2022/09/27 05:01:41;;;;;;;5.27;0.83;;;;;;;8.21;100.00;99783.84;5017169;28;20034;-81
2022/09/27 05:04:06;;;;;;;3.13;1.00;;;;;;;8.15;100.00;99790.50;5015248;28;20301;-81
2022/09/27 05:06:32;;;;;;;3.15;0.80;;;;;;;8.18;100.00;99792.91;5009202;28;20069;-82
2022/09/27 05:08:57;;;;;;;3.33;1.35;;;;;;;8.12;100.00;99788.94;5016273;28;20033;-82
2022/09/27 05:11:23;;;;;;;2.05;1.13;;;;;;;8.14;100.00;99786.16;5015156;28;20117;-82
2022/09/27 05:13:49;;;;;;;3.17;1.10;;;;;;;8.18;100.00;99798.19;5015234;28;20100;-81
2022/09/27 05:16:14;;;;;;;3.67;1.13;;;;;;;8.19;100.00;99794.56;5017032;28;20049;-81
2022/09/27 05:18:41;;;;;;;2.67;0.90;;;;;;;8.17;100.00;99796.50;5020089;28;20060;-81
2022/09/27 05:21:06;;;;;;;2.20;0.90;;;;;;;8.12;100.00;99793.41;5021411;28;20473;-81
2022/09/27 05:23:32;;;;;;;6.43;1.15;;;;;;;8.15;100.00;99795.78;5020016;28;20044;-82
2022/09/27 05:25:57;;;;;;;4.57;0.95;;;;;;;8.15;100.00;99796.63;5017653;28;20100;-81
2022/09/27 05:28:23;;;;;;;3.10;1.10;;;;;;;8.14;100.00;99781.75;5020392;28;20022;-81
2022/09/27 05:30:49;;;;;;;1.98;0.70;;;;;;;8.13;100.00;99793.28;5020427;28;20493;-82
2022/09/27 05:33:14;;;;;;;3.03;1.00;;;;;;;8.15;100.00;99790.50;5025076;28;20113;-81
2022/09/27 05:35:41;;;;;;;3.30;1.10;;;;;;;8.18;100.00;99792.03;5025638;28;20033;-82
2022/09/27 05:38:06;;;;;;;1.42;0.95;;;;;;;8.16;100.00;99797.47;5023349;28;20033;-82
2022/09/27 05:40:32;;;;;;;2.50;0.88;;;;;;;8.19;100.00;99796.38;5023293;28;20022;-82
2022/09/27 05:42:57;;;;;;;5.57;1.25;;;;;;;8.20;100.00;99795.41;5021870;28;20030;-82
2022/09/27 05:45:24;;;;;;;2.55;1.10;;;;;;;8.18;100.00;99798.19;5030354;28;20079;-82
2022/09/27 05:47:57;;;;;;;4.57;1.30;;;;;;;8.19;100.00;99799.03;5018682;28;20033;-82
2022/09/27 05:50:25;;;;;;;2.85;0.85;;;;;;;8.19;100.00;99797.19;5021397;28;20034;-81
2022/09/27 05:52:52;;;;;;;3.83;1.00;;;;;;;8.19;100.00;99799.03;5031798;28;20388;-82
2022/09/27 05:55:17;;;;;;;6.50;1.70;;;;;;;8.18;100.00;99806.13;5032428;28;20354;-83
2022/09/27 05:57:56;;;;;;;1.25;1.15;;;;;;;8.20;100.00;99812.13;5020341;28;20021;-81
2022/09/27 06:00:22;;;;;;;2.63;0.90;;;;;;;8.20;100.00;99814.75;5020917;28;20030;-83
2022/09/27 06:02:59;;;;;;;4.45;2.03;;;;;;;8.06;100.00;99789.47;5022522;28;20600;-81
2022/09/27 06:05:27;;;;;;;7.38;2.75;;;;;;;8.17;100.00;99815.00;4998237;28;20073;-81
2022/09/27 06:07:58;;;;;;;3.10;2.10;;;;;;;8.09;100.00;99791.88;5014566;28;20037;-82
2022/09/27 06:10:24;;;;;;;6.22;2.10;;;;;;;8.16;100.00;99810.72;5013921;28;20033;-82
2022/09/27 06:12:49;;;;;;;4.78;1.00;;;;;;;8.13;100.00;99811.78;5021005;28;20132;-82
2022/09/27 06:15:14;;;;;;;3.80;1.25;;;;;;;8.14;100.00;99812.63;5032854;28;20072;-82
2022/09/27 06:17:39;;;;;;;3.60;1.20;;;;;;;8.12;100.00;99812.75;5033352;28;20037;-82
2022/09/27 06:20:06;;;;;;;2.55;1.13;;;;;;;8.10;100.00;99797.97;5032801;28;20041;-83
2022/09/27 06:22:31;;;;;;;1.42;0.93;;;;;;;8.08;100.00;99803.41;5022347;28;20524;-81
2022/09/27 06:24:57;;;;;;;1.38;1.02;;;;;;;8.11;100.00;99800.50;5013405;28;20026;-83
2022/09/27 06:27:22;;;;;;;2.47;0.95;;;;;;;8.08;100.00;99794.63;5013298;28;20477;-82
2022/09/27 06:29:47;;;;;;;5.15;1.10;;;;;;;8.08;100.00;99792.00;5006686;28;20022;-82
2022/09/27 06:32:13;;;;;;;1.02;1.00;;;;;;;8.10;100.00;99801.47;5017175;28;20042;-82
2022/09/27 06:34:40;;;;;;;1.88;1.23;;;;;;;7.99;100.00;99790.94;5013634;28;20108;-81
2022/09/27 06:37:06;;;;;;;3.15;1.40;;;;;;;8.07;100.00;99806.16;5011264;28;20632;-82
2022/09/27 06:39:33;;;;;;;2.63;1.50;;;;;;;8.06;100.00;99817.69;5014744;28;20109;-81
2022/09/27 06:41:58;;;;;;;2.90;1.65;;;;;;;8.05;100.00;99811.59;5015583;28;20534;-80
2022/09/27 06:44:24;;;;;;;3.83;2.03;;;;;;;8.07;100.00;99812.28;5018310;28;20026;-81
2022/09/27 06:46:51;;;;;;;4.45;1.88;;;;;;;8.08;100.00;99815.78;5012686;28;20049;-81
2022/09/27 06:49:17;;;;;;;4.82;1.95;;;;;;;8.03;100.00;99807.41;5012418;28;20109;-82
2022/09/27 06:51:42;;;;;;;3.45;2.13;;;;;;;8.00;100.00;99797.06;5007020;28;20458;-82
2022/09/27 06:54:07;;;;;;;2.03;1.83;;;;;;;8.05;100.00;99803.66;5010100;28;20022;-81
2022/09/27 06:56:33;;;;;;;2.58;2.38;;;;;;;8.04;100.00;99799.31;5006224;28;20156;-81
2022/09/27 07:01:43;;;;;;;5.70;2.22;;;;;;;8.10;100.00;99814.69;5021280;28;20095;-82
2022/09/27 07:04:10;;;;;;;3.63;2.20;;;;;;;8.11;100.00;99810.22;5020613;28;20036;-83
2022/09/27 07:06:36;;;;;;;4.47;2.30;;;;;;;8.11;100.00;99810.22;5018735;28;20037;-81
2022/09/27 07:09:02;;;;;;;6.55;2.10;;;;;;;8.13;100.00;99813.59;5017057;28;20052;-80
2022/09/27 07:11:31;;;;;;;4.65;2.20;;;;;;;8.16;100.00;99810.72;5034093;28;20078;-83
2022/09/27 07:13:57;;;;;;;4.55;2.00;;;;;;;8.20;100.00;99820.06;5036464;28;20046;-83
2022/09/27 07:16:22;;;;;;;3.30;2.30;;;;;;;8.21;100.00;99819.09;5036656;28;20038;-81
2022/09/27 07:18:48;;;;;;;5.40;2.92;;;;;;;8.23;100.00;99811.88;5037601;28;20050;-83
2022/09/27 07:21:15;;;;;;;4.65;2.50;;;;;;;8.27;100.00;99807.97;5041141;28;20034;-82
2022/09/27 07:23:41;;;;;;;3.60;2.30;;;;;;;8.36;100.00;99821.41;5037095;28;20086;-83
2022/09/27 07:26:09;;;;;;;3.40;2.00;;;;;;;8.40;100.00;99828.13;5042202;28;20040;-82
2022/09/27 07:28:35;;;;;;;5.38;2.30;;;;;;;8.37;100.00;99823.09;5035976;28;20033;-82
2022/09/27 07:31:01;;;;;;;5.88;2.55;;;;;;;8.39;100.00;99818.50;5036484;28;20045;-83
2022/09/27 07:33:28;;;;;;;3.10;2.25;;;;;;;8.40;100.00;99820.19;5038185;28;20037;-81
2022/09/27 07:35:53;;;;;;;4.07;2.70;;;;;;;8.38;100.00;99828.25;5037077;28;20033;-82
2022/09/27 07:38:19;;;;;;;2.92;2.55;;;;;;;8.38;100.00;99819.50;5038994;28;20141;-80
2022/09/27 07:40:44;;;;;;;3.20;2.92;;;;;;;8.44;100.00;99825.16;5024645;28;20029;-81
2022/09/27 07:43:11;;;;;;;6.18;2.72;;;;;;;8.44;100.00;99824.28;5019550;28;20026;-82
2022/09/27 07:45:37;;;;;;;6.78;3.13;;;;;;;8.48;100.00;99831.00;5030209;28;20033;-82
2022/09/27 07:48:07;;;;;;;5.28;3.28;;;;;;;8.51;100.00;99822.81;5028235;28;20468;-81
2022/09/27 07:50:33;;;;;;;6.32;3.40;;;;;;;8.53;100.00;99834.13;5032470;28;20025;-81
2022/09/27 07:52:59;;;;;;;4.78;3.58;;;;;;;8.49;100.00;99825.59;5040975;28;20056;-82
2022/09/27 07:55:24;;;;;;;5.97;4.32;;;;;;;8.54;100.00;99833.13;5028829;28;20026;-82
2022/09/27 07:57:50;;;;;;;7.65;3.90;;;;;;;8.47;100.00;99824.03;5025764;28;20137;-82
2022/09/27 08:00:20;;;;;;;5.57;3.92;;;;;;;8.55;100.00;99839.28;5021132;28;20025;-81
2022/09/27 08:02:49;;;;;;;5.60;4.32;;;;;;;8.58;100.00;99844.31;5018004;28;20029;-82
2022/09/27 08:05:14;;;;;;;6.30;4.50;;;;;;;8.60;100.00;99842.38;5020483;28;20056;-82
2022/09/27 08:07:40;;;;;;;5.57;4.15;;;;;;;8.63;100.00;99848.25;5033827;28;20038;-81
2022/09/27 08:10:07;;;;;;;6.15;4.28;;;;;;;8.63;100.00;99855.34;5015965;28;20041;-82
2022/09/27 08:12:32;;;;;;;7.13;4.38;;;;;;;8.59;100.00;99844.16;5019660;28;20032;-82
2022/09/27 08:15:00;;;;;;;9.13;4.68;;;;;;;8.57;100.00;99842.63;5003896;28;20065;-82
2022/09/27 08:17:27;;;;;;;8.23;5.40;;;;;;;8.60;100.00;99842.38;5028825;28;20528;-81
2022/09/27 08:19:52;;;;;;;6.18;4.90;;;;;;;8.69;100.00;99852.16;5033368;28;20412;-81
2022/09/27 08:22:20;;;;;;;7.20;5.25;;;;;;;8.70;100.00;99849.41;5029174;28;20033;-82
2022/09/27 08:24:46;;;;;;;9.05;5.80;;;;;;;8.73;100.00;99844.81;5030098;28;20038;-82
2022/09/27 08:27:12;;;;;;;6.93;5.60;;;;;;;8.78;100.00;99845.28;5029256;28;20014;-82
2022/09/27 08:29:41;;;;;;;9.32;7.00;;;;;;;8.72;100.00;99838.69;5018011;28;20025;-81
2022/09/27 08:32:07;;;;;;;14.47;7.10;;;;;;;8.85;100.00;99854.38;5028846;28;20026;-82
2022/09/27 08:34:36;;;;;;;11.88;7.00;;;;;;;8.86;100.00;99854.22;5025183;28;20026;-81
2022/09/27 08:37:01;;;;;;;9.60;7.20;;;;;;;8.89;100.00;99845.19;5024624;28;20064;-81
2022/09/27 08:39:26;;;;;;;10.95;7.88;;;;;;;8.92;100.00;99844.91;5038436;28;20022;-81
2022/09/27 08:42:04;;;;;;;10.32;8.15;;;;;;;8.97;100.00;99845.34;5025486;28;20033;-81
2022/09/27 08:44:49;;;;;;;9.90;8.90;;;;;;;8.99;100.00;99839.94;5023229;28;20565;-80
2022/09/27 08:47:26;;;;;;;12.18;8.68;;;;;;;9.04;100.00;99843.03;5018763;28;20089;-81
2022/09/27 08:50:27;;;;;;;11.45;9.23;;;;;;;9.07;100.00;99848.88;5024765;28;20663;-82
2022/09/27 08:53:36;;;;;;;13.45;9.57;;;;;;;9.12;100.00;99848.50;5014283;28;20520;-81
2022/09/27 08:56:02;;;;;;;10.82;9.77;;;;;;;9.06;100.00;99835.81;5005471;28;20031;-81
2022/09/27 08:58:31;;;;;;;11.55;10.00;;;;;;;9.17;100.00;99856.06;5019547;28;20082;-80
2022/09/27 09:01:00;;;;;;;11.93;10.75;;;;;;;9.20;100.00;99851.31;5024737;28;20041;-80
2022/09/27 09:03:42;;;;;;;13.43;11.40;;;;;;;9.23;100.00;99851.06;5025355;28;20029;-81
2022/09/27 09:06:15;;;;;;;14.25;11.52;;;;;;;9.29;100.00;99849.69;5013868;28;20044;-82
2022/09/27 09:09:02;;;;;;;14.73;10.98;;;;;;;9.24;100.00;99846.59;5023715;28;20113;-82
2022/09/27 09:14:57;;;;;;;11.80;10.60;;;;;;;9.34;100.00;99852.78;5020028;28;20104;-81
2022/09/27 09:17:22;;;;;;;11.20;10.13;;;;;;;9.35;100.00;99857.09;5033911;28;20037;-81
2022/09/27 09:19:57;;;;;;;12.03;10.83;;;;;;;9.37;100.00;99868.41;5020108;28;20034;-82
2022/09/27 09:22:45;;;;;;;12.73;11.30;;;;;;;9.28;100.00;99853.31;5036563;28;20284;-82
2022/09/27 09:25:21;;;;;;;13.18;11.07;;;;;;;9.40;100.00;99867.31;5033062;28;20080;-82
2022/09/27 09:27:46;;;;;;;14.10;11.93;;;;;;;9.36;100.00;99858.78;5024122;28;20025;-82
2022/09/27 09:30:23;;;;;;;13.83;12.33;;;;;;;9.28;100.00;99844.53;5027493;28;20037;-82
2022/09/27 09:33:06;;;;;;;16.75;12.45;;;;;;;9.49;100.00;99879.72;5036168;28;20778;-82
2022/09/27 09:35:49;;;;;;;15.20;13.60;;;;;;;9.50;100.00;99877.94;5009314;28;20041;-82
2022/09/27 09:38:24;;;;;;;18.08;14.50;;;;;;;9.48;100.00;99870.13;5013306;28;20120;-82
2022/09/27 09:41:02;;;;;;;15.95;14.13;;;;;;;9.52;100.00;99870.69;5019701;28;20021;-82
2022/09/27 09:43:43;;;;;;;16.58;13.98;;;;;;;9.52;100.00;99868.88;5027229;28;20468;-81
2022/09/27 09:46:34;;;;;;;17.00;15.23;;;;;;;9.55;100.00;99873.06;5033175;28;20045;-82
2022/09/27 09:49:06;;;;;;;14.20;12.43;;;;;;;9.48;100.00;99862.16;5017058;28;20026;-81
2022/09/27 09:51:38;;;;;;;12.93;11.63;;;;;;;9.50;100.00;99870.00;5017352;28;20065;-80
2022/09/27 09:54:14;;;;;;;13.38;10.85;;;;;;;9.48;100.00;99869.28;5019518;28;20026;-81
2022/09/27 09:56:48;;;;;;;10.05;8.40;;;;;;;9.50;100.00;99872.66;5017609;28;20038;-81
2022/09/27 09:59:27;;;;;;;9.75;8.00;;;;;;;9.50;100.00;99880.59;5015684;28;20081;-79
2022/09/27 10:01:57;;;;;;;8.20;6.10;;;;;;;9.51;100.00;99885.75;5015651;28;20116;-81
2022/09/27 10:04:26;;;;;;;8.25;5.05;;;;;;;9.48;100.00;99875.44;5014254;28;20465;-81
2022/09/27 10:06:53;;;;;;;5.95;4.15;;;;;;;9.39;100.00;99871.78;5014065;28;20030;-82
2022/09/27 10:09:25;;;;;;;6.05;4.07;;;;;;;9.43;100.00;99875.81;5017799;28;20508;-81
2022/09/27 10:11:50;;;;;;;5.72;3.28;;;;;;;9.43;100.00;99875.81;5016620;28;20022;-81
2022/09/27 10:14:19;;;;;;;4.70;3.53;;;;;;;9.40;100.00;99878.72;5012553;28;20615;-82
2022/09/27 10:16:49;;;;;;;3.95;2.70;;;;;;;9.40;100.00;99878.72;5011542;28;20029;-81
2022/09/27 10:19:33;;;;;;;4.15;2.33;;;;;;;9.42;100.00;99876.78;5018586;28;20129;-81
2022/09/27 10:22:22;;;;;;;4.57;2.17;;;;;;;9.38;100.00;99874.56;5016759;28;20065;-81
2022/09/27 10:25:01;;;;;;;3.08;1.88;;;;;;;9.35;99.98;99882.78;5010683;28;20132;-81
2022/09/27 10:27:27;;;;;;;2.50;1.50;;;;;;;9.29;100.00;99884.13;5019263;28;20085;-81
2022/09/27 10:29:59;;;;;;;3.38;1.60;;;;;;;9.33;100.00;99888.19;5011404;28;20053;-81
2022/09/27 10:32:32;;;;;;;2.15;1.27;;;;;;;9.31;99.61;99887.50;5015664;28;20037;-81
2022/09/27 10:35:29;;;;;;;2.50;1.20;;;;;;;9.31;99.54;99894.59;5013922;28;20679;-82
2022/09/27 10:38:27;;;;;;;3.53;1.50;;;;;;;9.31;99.88;99890.16;5011639;28;20099;-82
2022/09/27 10:40:54;;;;;;;1.90;1.00;;;;;;;9.21;98.72;99883.97;5014863;28;20045;-82
2022/09/27 10:43:23;;;;;;;2.45;0.88;;;;;;;9.22;98.89;99882.97;5019956;28;20036;-82
2022/09/27 10:45:49;;;;;;;2.90;1.10;;;;;;;9.28;99.58;99890.41;5015856;28;20058;-82
2022/09/27 10:48:22;;;;;;;2.92;1.23;;;;;;;9.31;99.44;99894.59;5012014;28;20041;-82
2022/09/27 10:51:00;;;;;;;2.60;1.13;;;;;;;9.36;100.00;99895.03;5011989;28;20034;-82
2022/09/27 10:53:28;;;;;;;2.17;1.15;;;;;;;9.36;99.97;99879.13;5012645;28;20064;-81
2022/09/27 10:55:54;;;;;;;3.10;1.60;;;;;;;9.39;100.00;99887.69;5020405;28;20108;-82
2022/09/27 10:58:49;;;;;;;3.47;1.40;;;;;;;9.46;100.00;99890.63;5021856;28;21561;-82
2022/09/27 11:01:15;;;;;;;4.72;1.33;;;;;;;9.42;99.17;99891.84;5004413;28;20070;-82
2022/09/27 11:03:54;;;;;;;3.22;1.25;;;;;;;9.41;99.06;99888.38;5011883;28;20419;-82
2022/09/27 11:06:27;;;;;;;1.05;0.90;;;;;;;9.32;98.43;99886.50;5020771;28;20041;-81
2022/09/27 11:08:54;;;;;;;0.95;0.80;;;;;;;9.31;98.50;99884.84;5018974;28;20034;-82
2022/09/27 11:11:23;;;;;;;2.17;0.77;;;;;;;9.37;97.91;99888.78;5010425;28;20122;-82
2022/09/27 11:14:03;;;;;;;0.73;0.70;;;;;;;9.39;98.03;99886.81;5025595;28;20034;-82
2022/09/27 11:16:47;;;;;;;;;;;;;;;9.49;98.34;99874.44;5021306;28;20092;-82
2022/09/27 11:19:31;;;;;;;1.45;0.80;;;;;;;9.45;97.75;99867.72;5013970;28;19914;-82
2022/09/27 11:22:34;;;;;;;1.70;1.10;;;;;;;9.55;99.05;99873.91;5016343;28;20073;-82
2022/09/27 11:25:05;;;;;;;3.33;1.20;;;;;;;9.62;98.85;99860.94;5020720;28;20025;-82
2022/09/27 11:27:56;;;;;;;1.42;1.20;;;;;;;9.71;99.34;99856.63;5021908;28;20128;-83
2022/09/27 11:30:23;;;;;;;1.83;1.17;;;;;;;9.79;98.22;99859.44;5012348;28;20229;-82
2022/09/27 11:33:15;;;;;;;2.15;0.80;;;;;;;9.88;98.20;99857.81;5021889;28;20061;-82
2022/09/27 11:35:51;;;;;;;1.63;0.95;;;;;;;9.99;99.26;99855.00;5017759;28;20057;-81
2022/09/27 11:38:17;;;;;;;1.55;1.10;;;;;;;10.10;98.54;99860.19;5006805;28;20436;-82
2022/09/27 11:40:54;;;;;;;1.57;1.00;;;;;;;10.23;99.82;99859.91;5022961;28;20064;-82
2022/09/27 11:43:48;;;;;;;1.20;0.82;;;;;;;10.33;98.46;99855.47;5018562;28;20273;-82
2022/09/27 11:46:20;;;;;;;1.88;0.85;;;;;;;10.45;99.08;99858.00;5024944;28;20049;-83
2022/09/27 11:49:15;;;;;;;1.95;1.20;;;;;;;10.48;98.07;99849.75;5035052;28;20002;-81
2022/09/27 11:51:52;;;;;;;3.03;1.08;;;;;;;10.68;98.37;99862.00;5033401;28;20042;-81
2022/09/27 11:54:29;;;;;;;3.13;1.20;;;;;;;10.65;95.93;99849.00;5025188;28;20042;-81
2022/09/27 11:57:15;;;;;;;1.90;1.08;;;;;;;10.80;97.20;99856.53;5025207;28;20069;-82
2022/09/27 12:00:01;;;;;;;2.25;0.98;;;;;;;10.83;96.18;99850.94;5018332;28;20080;-81
2022/09/27 12:02:29;;;;;;;2.92;1.40;;;;;;;10.93;95.09;99852.56;5030341;28;20042;-81
2022/09/27 12:05:13;;;;;;;2.25;1.17;;;;;;;11.03;95.10;99849.91;5019198;28;20031;-81